createdAt,value
2023-02-28T00:00:34.000Z,1024
2023-02-28T00:01:50.000Z,1024
2023-02-28T00:03:07.130Z,1024
2023-02-28T00:04:23.000Z,1024
2023-02-28T00:05:39.000Z,1024
2023-02-28T00:06:55.000Z,1024
2023-02-28T00:08:12.000Z,1024
2023-02-28T00:09:28.000Z,1024
2023-02-28T00:10:44.000Z,1023.9
2023-02-28T00:12:00.000Z,1024
2023-02-28T00:13:17.000Z,1024
2023-02-28T00:14:33.000Z,1024
2023-02-28T00:15:48.000Z,1024
2023-02-28T00:17:05.000Z,1024
2023-02-28T00:18:21.000Z,1024
2023-02-28T00:19:37.859Z,1024
2023-02-28T00:20:53.000Z,1024
2023-02-28T00:22:10.000Z,1024
2023-02-28T00:23:26.000Z,1023.9
2023-02-28T00:24:42.000Z,1024
2023-02-28T00:25:59.000Z,1024
2023-02-28T00:27:15.000Z,1024.1
2023-02-28T00:28:31.000Z,1024
2023-02-28T00:29:47.000Z,1024
2023-02-28T00:31:04.000Z,1024
2023-02-28T00:32:19.000Z,1024
2023-02-28T00:33:34.000Z,1024
2023-02-28T00:34:50.000Z,1024
2023-02-28T00:36:06.000Z,1024
2023-02-28T00:37:22.000Z,1024
2023-02-28T00:38:38.000Z,1024
2023-02-28T00:39:53.000Z,1023.8
2023-02-28T00:41:09.877Z,1024
2023-02-28T00:42:25.000Z,1024
2023-02-28T00:43:42.000Z,1024
2023-02-28T00:44:58.000Z,1024
2023-02-28T00:46:14.000Z,1023.9
2023-02-28T00:47:31.000Z,1023.9
2023-02-28T00:48:47.000Z,1023.9
2023-02-28T00:50:03.880Z,1023.9
2023-02-28T00:51:19.000Z,1023.9
2023-02-28T00:52:36.000Z,1023.9
2023-02-28T00:53:52.745Z,1023.9
2023-02-28T00:55:08.000Z,1023.9
2023-02-28T00:56:24.000Z,1023.9
2023-02-28T00:57:40.000Z,1023.9
2023-02-28T00:58:56.000Z,1023.9
2023-02-28T01:00:12.000Z,1023.9
2023-02-28T01:01:29.000Z,1023.9
2023-02-28T01:02:45.000Z,1023.9
2023-02-28T01:04:01.000Z,1023.9
2023-02-28T01:05:18.000Z,1023.9
2023-02-28T01:06:34.000Z,1023.9
2023-02-28T01:07:50.000Z,1023.9
2023-02-28T01:09:06.000Z,1023.9
2023-02-28T01:10:23.000Z,1023.9
2023-02-28T01:11:39.000Z,1023.9
2023-02-28T01:12:54.000Z,1023.9
2023-02-28T01:14:11.000Z,1023.9
2023-02-28T01:15:27.000Z,1023.9
2023-02-28T01:16:43.000Z,1023.9
2023-02-28T01:18:00.000Z,1023.8
2023-02-28T01:19:16.000Z,1023.9
2023-02-28T01:20:32.000Z,1023.9
2023-02-28T01:21:48.000Z,1023.9
2023-02-28T01:23:05.000Z,1023.9
2023-02-28T01:24:21.000Z,1023.8
2023-02-28T01:25:37.000Z,1023.9
2023-02-28T01:26:54.000Z,1023.8
2023-02-28T01:28:10.000Z,1023.8
2023-02-28T01:29:25.000Z,1023.8
2023-02-28T01:30:42.150Z,1023.8
2023-02-28T01:31:58.443Z,1023.8
2023-02-28T01:33:14.729Z,1023.9
2023-02-28T01:34:30.000Z,1023.9
2023-02-28T01:35:47.000Z,1023.8
2023-02-28T01:37:03.000Z,1023.8
2023-02-28T01:38:19.000Z,1023.9
2023-02-28T01:39:35.000Z,1023.8
2023-02-28T01:40:52.430Z,1023.9
2023-02-28T01:42:08.000Z,1023.8
2023-02-28T01:43:24.000Z,1023.8
2023-02-28T01:44:41.322Z,1023.8
2023-02-28T01:45:56.000Z,1023.7
2023-02-28T01:47:12.000Z,1023.8
2023-02-28T01:48:28.000Z,1023.7
2023-02-28T01:49:45.000Z,1023.7
2023-02-28T01:51:01.000Z,1023.7
2023-02-28T01:52:17.000Z,1023.7
2023-02-28T01:53:34.000Z,1023.7
2023-02-28T01:54:50.000Z,1023.7
2023-02-28T01:56:06.000Z,1023.7
2023-02-28T01:57:22.000Z,1023.7
2023-02-28T01:58:39.000Z,1023.7
2023-02-28T01:59:55.000Z,1023.7
2023-02-28T02:01:12.069Z,1023.7
2023-02-28T02:02:27.000Z,1023.7
2023-02-28T02:03:43.662Z,1023.7
2023-02-28T02:04:59.000Z,1023.7
2023-02-28T02:06:15.000Z,1023.7
2023-02-28T02:07:32.000Z,1023.8
2023-02-28T02:08:48.000Z,1023.7
2023-02-28T02:10:04.000Z,1023.8
2023-02-28T02:11:21.000Z,1023.8
2023-02-28T02:12:37.000Z,1023.8
2023-02-28T02:13:53.000Z,1023.8
2023-02-28T02:15:10.000Z,1023.7
2023-02-28T02:16:26.000Z,1023.7
2023-02-28T02:17:42.000Z,1023.7
2023-02-28T02:18:57.000Z,1023.7
2023-02-28T02:20:14.000Z,1023.7
2023-02-28T02:21:30.000Z,1023.7
2023-02-28T02:22:46.993Z,1023.7
2023-02-28T02:24:03.291Z,1023.7
2023-02-28T02:25:19.559Z,1023.7
2023-02-28T02:26:35.000Z,1023.7
2023-02-28T02:27:51.000Z,1023.7
2023-02-28T02:29:08.000Z,1023.6
2023-02-28T02:30:24.715Z,1023.7
2023-02-28T02:31:40.000Z,1023.7
2023-02-28T02:32:57.000Z,1023.7
2023-02-28T02:34:13.000Z,1023.8
2023-02-28T02:35:28.000Z,1023.8
2023-02-28T02:36:44.000Z,1023.8
2023-02-28T02:38:01.000Z,1023.8
2023-02-28T02:39:17.000Z,1023.8
2023-02-28T02:40:33.000Z,1023.8
2023-02-28T02:41:50.000Z,1023.8
2023-02-28T02:43:06.765Z,1023.7
2023-02-28T02:44:22.000Z,1023.8
2023-02-28T02:45:38.000Z,1023.7
2023-02-28T02:46:55.000Z,1023.7
2023-02-28T02:48:11.000Z,1023.7
2023-02-28T02:49:27.000Z,1023.8
2023-02-28T02:50:44.000Z,1023.7
2023-02-28T02:51:59.653Z,1023.8
2023-02-28T02:53:15.000Z,1023.8
2023-02-28T02:54:31.000Z,1023.8
2023-02-28T02:55:48.000Z,1023.8
2023-02-28T02:57:04.000Z,1023.8
2023-02-28T02:58:20.000Z,1023.8
2023-02-28T02:59:37.000Z,1023.9
2023-02-28T03:00:53.000Z,1023.9
2023-02-28T03:02:09.000Z,1023.9
2023-02-28T03:03:26.000Z,1023.8
2023-02-28T03:04:42.000Z,1023.9
2023-02-28T03:05:58.000Z,1023.9
2023-02-28T03:07:14.000Z,1023.8
2023-02-28T03:08:30.000Z,1023.9
2023-02-28T03:09:46.000Z,1023.9
2023-02-28T03:11:02.000Z,1023.9
2023-02-28T03:12:19.000Z,1023.9
2023-02-28T03:13:35.555Z,1023.9
2023-02-28T03:14:51.000Z,1023.9
2023-02-28T03:16:07.000Z,1023.9
2023-02-28T03:17:24.000Z,1023.9
2023-02-28T03:18:40.000Z,1024
2023-02-28T03:19:56.000Z,1024
2023-02-28T03:21:13.000Z,1023.9
2023-02-28T03:22:29.000Z,1023.9
2023-02-28T03:23:45.000Z,1023.9
2023-02-28T03:25:00.000Z,1023.9
2023-02-28T03:26:17.000Z,1023.9
2023-02-28T03:27:33.000Z,1023.9
2023-02-28T03:28:49.000Z,1023.9
2023-02-28T03:30:06.000Z,1023.9
2023-02-28T03:31:22.000Z,1023.9
2023-02-28T03:32:38.000Z,1023.9
2023-02-28T03:33:53.000Z,1023.9
2023-02-28T03:35:10.000Z,1023.9
2023-02-28T03:36:26.000Z,1023.9
2023-02-28T03:37:42.000Z,1023.9
2023-02-28T03:38:59.000Z,1023.9
2023-02-28T03:40:15.000Z,1023.9
2023-02-28T03:41:31.000Z,1023.9
2023-02-28T03:42:47.000Z,1023.9
2023-02-28T03:44:04.000Z,1023.9
2023-02-28T03:45:20.000Z,1023.9
2023-02-28T03:46:36.000Z,1023.9
2023-02-28T03:47:53.000Z,1024
2023-02-28T03:49:09.000Z,1023.9
2023-02-28T03:50:24.000Z,1024
2023-02-28T03:51:41.248Z,1024
2023-02-28T03:52:57.533Z,1024
2023-02-28T03:54:13.000Z,1024
2023-02-28T03:55:30.102Z,1024
2023-02-28T03:56:46.000Z,1024
2023-02-28T03:58:02.000Z,1024
2023-02-28T03:59:18.000Z,1024
2023-02-28T04:00:35.000Z,1024
2023-02-28T04:01:51.000Z,1024
2023-02-28T04:03:07.000Z,1024
2023-02-28T04:04:23.000Z,1024
2023-02-28T04:05:40.000Z,1024
2023-02-28T04:06:55.000Z,1024
2023-02-28T04:08:11.000Z,1024
2023-02-28T04:09:28.000Z,1024
2023-02-28T04:10:44.576Z,1024
2023-02-28T04:12:00.000Z,1024
2023-02-28T04:13:16.000Z,1024
2023-02-28T04:14:33.000Z,1024
2023-02-28T04:15:49.000Z,1023.9
2023-02-28T04:17:06.034Z,1024
2023-02-28T04:18:22.000Z,1024
2023-02-28T04:19:38.602Z,1024
2023-02-28T04:20:54.000Z,1024
2023-02-28T04:22:10.000Z,1024
2023-02-28T04:23:26.000Z,1024.1
2023-02-28T04:24:42.000Z,1024
2023-02-28T04:25:58.000Z,1024
2023-02-28T04:27:15.000Z,1024
2023-02-28T04:28:31.000Z,1024
2023-02-28T04:29:47.937Z,1024
2023-02-28T04:31:03.000Z,1024
2023-02-28T04:32:20.000Z,1024
2023-02-28T04:33:36.000Z,1024
2023-02-28T04:34:52.000Z,1024
2023-02-28T04:36:09.000Z,1024
2023-02-28T04:37:25.000Z,1024
2023-02-28T04:38:41.000Z,1024
2023-02-28T04:39:56.000Z,1024
2023-02-28T04:41:13.000Z,1024
2023-02-28T04:42:29.000Z,1024
2023-02-28T04:43:45.000Z,1024
2023-02-28T04:45:02.000Z,1024
2023-02-28T04:46:18.000Z,1024
2023-02-28T04:47:34.000Z,1024
2023-02-28T04:48:51.261Z,1024
2023-02-28T04:50:07.000Z,1024
2023-02-28T04:51:23.000Z,1024
2023-02-28T04:52:39.000Z,1024
2023-02-28T04:53:56.000Z,1024
2023-02-28T04:55:12.000Z,1024
2023-02-28T04:56:27.000Z,1024
2023-02-28T04:57:44.000Z,1023.9
2023-02-28T04:59:00.000Z,1024
2023-02-28T05:00:16.000Z,1024
2023-02-28T05:01:32.000Z,1024
2023-02-28T05:02:49.000Z,1024
2023-02-28T05:04:05.000Z,1024
2023-02-28T05:05:21.000Z,1024
2023-02-28T05:06:38.000Z,1024
2023-02-28T05:07:54.609Z,1024.1
2023-02-28T05:09:10.000Z,1024.1
2023-02-28T05:10:26.000Z,1024.1
2023-02-28T05:11:43.000Z,1024.1
2023-02-28T05:12:58.000Z,1024.1
2023-02-28T05:14:14.000Z,1024.1
2023-02-28T05:15:31.000Z,1024.1
2023-02-28T05:16:47.000Z,1024.1
2023-02-28T05:18:03.000Z,1024.1
2023-02-28T05:19:19.000Z,1024.1
2023-02-28T05:20:36.000Z,1024.1
2023-02-28T05:21:52.000Z,1024.1
2023-02-28T05:23:08.000Z,1024.1
2023-02-28T05:24:25.000Z,1024.1
2023-02-28T05:25:41.000Z,1024.1
2023-02-28T05:26:57.000Z,1024.1
2023-02-28T05:28:13.000Z,1024.1
2023-02-28T05:29:29.000Z,1024.1
2023-02-28T05:30:45.000Z,1024.1
2023-02-28T05:32:01.000Z,1024.1
2023-02-28T05:33:18.411Z,1024.2
2023-02-28T05:34:34.000Z,1024.1
2023-02-28T05:35:50.963Z,1024.1
2023-02-28T05:37:07.000Z,1024.1
2023-02-28T05:38:23.000Z,1024.2
2023-02-28T05:39:39.000Z,1024.2
2023-02-28T05:40:55.000Z,1024.1
2023-02-28T05:42:12.000Z,1024.2
2023-02-28T05:43:28.000Z,1024.2
2023-02-28T05:44:44.000Z,1024.2
2023-02-28T05:45:59.000Z,1024.2
2023-02-28T05:47:16.000Z,1024.2
2023-02-28T05:48:32.000Z,1024.3
2023-02-28T05:49:48.901Z,1024.3
2023-02-28T05:51:04.000Z,1024.2
2023-02-28T05:52:21.000Z,1024.2
2023-02-28T05:53:37.000Z,1024.3
2023-02-28T05:54:53.000Z,1024.3
2023-02-28T05:56:09.000Z,1024.3
2023-02-28T05:57:26.000Z,1024.4
2023-02-28T05:58:42.565Z,1024.3
2023-02-28T05:59:58.000Z,1024.3
2023-02-28T06:01:14.000Z,1024.3
2023-02-28T06:02:30.000Z,1024.4
2023-02-28T06:03:46.000Z,1024.4
2023-02-28T06:05:02.000Z,1024.3
2023-02-28T06:06:18.000Z,1024.4
2023-02-28T06:07:34.000Z,1024.3
2023-02-28T06:08:51.000Z,1024.3
2023-02-28T06:10:07.000Z,1024.3
2023-02-28T06:11:23.000Z,1024.3
2023-02-28T06:12:39.000Z,1024.3
2023-02-28T06:13:56.000Z,1024.3
2023-02-28T06:15:12.000Z,1024.3
2023-02-28T06:16:28.000Z,1024.3
2023-02-28T06:17:44.000Z,1024.3
2023-02-28T06:19:00.000Z,1024.3
2023-02-28T06:20:16.596Z,1024.3
2023-02-28T06:21:32.000Z,1024.3
2023-02-28T06:22:48.000Z,1024.3
2023-02-28T06:24:05.298Z,1024.3
2023-02-28T06:25:21.520Z,1024.4
2023-02-28T06:26:37.750Z,1024.3
2023-02-28T06:27:53.000Z,1024.3
2023-02-28T06:29:09.000Z,1024.3
2023-02-28T06:30:26.000Z,1024.4
2023-02-28T06:31:42.000Z,1024.4
2023-02-28T06:32:58.000Z,1024.4
2023-02-28T06:34:15.144Z,1024.4
2023-02-28T06:35:30.000Z,1024.3
2023-02-28T06:36:46.642Z,1024.4
2023-02-28T06:38:02.000Z,1024.4
2023-02-28T06:39:18.000Z,1024.3
2023-02-28T06:40:35.000Z,1024.4
2023-02-28T06:41:51.000Z,1024.4
2023-02-28T06:43:07.789Z,1024.4
2023-02-28T06:44:23.000Z,1024.4
2023-02-28T06:45:40.000Z,1024.4
2023-02-28T06:46:56.000Z,1024.4
2023-02-28T06:48:12.000Z,1024.4
2023-02-28T06:50:44.000Z,1024.4
2023-02-28T06:52:00.000Z,1024.4
2023-02-28T06:53:16.000Z,1024.4
2023-02-28T06:54:32.000Z,1024.5
2023-02-28T06:55:48.000Z,1024.5
2023-02-28T06:57:05.000Z,1024.5
2023-02-28T06:58:21.000Z,1024.5
2023-02-28T06:59:37.000Z,1024.4
2023-02-28T07:00:53.000Z,1024.5
2023-02-28T07:02:10.000Z,1024.6
2023-02-28T07:03:26.574Z,1024.6
2023-02-28T07:04:42.000Z,1024.6
2023-02-28T07:05:58.000Z,1024.6
2023-02-28T07:07:15.000Z,1024.6
2023-02-28T07:08:30.000Z,1024.6
2023-02-28T07:09:46.000Z,1024.6
2023-02-28T07:11:02.000Z,1024.6
2023-02-28T07:12:18.000Z,1024.6
2023-02-28T07:13:35.455Z,1024.6
2023-02-28T07:14:51.000Z,1024.7
2023-02-28T07:16:07.000Z,1024.6
2023-02-28T07:17:23.000Z,1024.7
2023-02-28T07:18:40.000Z,1024.6
2023-02-28T07:19:56.000Z,1024.7
2023-02-28T07:21:12.000Z,1024.7
2023-02-28T07:22:28.000Z,1024.6
2023-02-28T07:23:45.000Z,1024.6
2023-02-28T07:25:00.000Z,1024.7
2023-02-28T07:26:16.000Z,1024.6
2023-02-28T07:27:33.054Z,1024.6
2023-02-28T07:28:49.000Z,1024.6
2023-02-28T07:30:05.000Z,1024.6
2023-02-28T07:31:21.000Z,1024.6
2023-02-28T07:32:37.000Z,1024.6
2023-02-28T07:33:53.000Z,1024.6
2023-02-28T07:35:10.000Z,1024.5
2023-02-28T07:36:26.000Z,1024.6
2023-02-28T07:37:42.000Z,1024.6
2023-02-28T07:38:58.000Z,1024.6
2023-02-28T07:40:15.000Z,1024.6
2023-02-28T07:41:30.000Z,1024.6
2023-02-28T07:42:46.000Z,1024.5
2023-02-28T07:44:02.000Z,1024.5
2023-02-28T07:45:19.000Z,1024.4
2023-02-28T07:46:35.582Z,1024.5
2023-02-28T07:47:51.000Z,1024.4
2023-02-28T07:49:06.000Z,1024.4
2023-02-28T07:50:23.000Z,1024.4
2023-02-28T07:51:39.000Z,1024.4
2023-02-28T07:52:55.000Z,1024.4
2023-02-28T07:54:11.000Z,1024.4
2023-02-28T07:55:27.000Z,1024.3
2023-02-28T07:56:44.000Z,1024.4
2023-02-28T07:58:00.000Z,1024.4
2023-02-28T07:59:16.000Z,1024.4
2023-02-28T08:00:32.000Z,1024.4
2023-02-28T08:01:49.000Z,1024.3
2023-02-28T08:03:05.000Z,1024.3
2023-02-28T08:04:21.000Z,1024.3
2023-02-28T08:05:37.141Z,1024.3
2023-02-28T08:06:53.000Z,1024.3
2023-02-28T08:08:09.000Z,1024.3
2023-02-28T08:09:25.000Z,1024.4
2023-02-28T08:10:41.000Z,1024.3
2023-02-28T08:11:58.000Z,1024.4
2023-02-28T08:13:14.000Z,1024.4
2023-02-28T08:14:30.000Z,1024.4
2023-02-28T08:15:46.000Z,1024.4
2023-02-28T08:17:02.000Z,1024.4
2023-02-28T08:18:19.450Z,1024.4
2023-02-28T08:19:35.000Z,1024.4
2023-02-28T08:20:51.000Z,1024.4
2023-02-28T08:22:06.000Z,1024.3
2023-02-28T08:23:23.000Z,1024.3
2023-02-28T08:24:39.000Z,1024.3
2023-02-28T08:25:55.000Z,1024.3
2023-02-28T08:27:11.000Z,1024.2
2023-02-28T08:28:28.312Z,1024.3
2023-02-28T08:29:44.553Z,1024.2
2023-02-28T08:31:00.000Z,1024.2
2023-02-28T08:32:16.000Z,1024.2
2023-02-28T08:33:33.000Z,1024.2
2023-02-28T08:34:49.000Z,1024.2
2023-02-28T08:36:05.000Z,1024.3
2023-02-28T08:37:21.000Z,1024.3
2023-02-28T08:38:36.000Z,1024.2
2023-02-28T08:39:53.444Z,1024.3
2023-02-28T08:41:09.000Z,1024.3
2023-02-28T08:42:25.000Z,1024.3
2023-02-28T08:44:58.000Z,1024.3
2023-02-28T08:46:14.000Z,1024.2
2023-02-28T08:47:30.000Z,1024.2
2023-02-28T08:48:46.000Z,1024.2
2023-02-28T08:50:03.000Z,1024.1
2023-02-28T08:51:19.000Z,1024.2
2023-02-28T08:52:35.000Z,1024.3
2023-02-28T08:53:51.000Z,1024.2
2023-02-28T08:55:07.000Z,1024.3
2023-02-28T08:57:39.000Z,1024.3
2023-02-28T08:58:55.000Z,1024.2
2023-02-28T09:00:11.000Z,1024.3
2023-02-28T09:01:28.394Z,1024.2
2023-02-28T09:02:44.000Z,1024.2
2023-02-28T09:04:00.000Z,1024.2
2023-02-28T09:05:17.126Z,1024.3
2023-02-28T09:06:33.000Z,1024.2
2023-02-28T09:07:49.000Z,1024.2
2023-02-28T09:10:21.000Z,1024.2
2023-02-28T09:11:37.293Z,1024.2
2023-02-28T09:12:52.000Z,1024.2
2023-02-28T09:14:08.000Z,1024.2
2023-02-28T09:15:24.000Z,1024.2
2023-02-28T09:16:41.000Z,1024.2
2023-02-28T09:17:57.000Z,1024.2
2023-02-28T09:19:13.000Z,1024.1
2023-02-28T09:20:29.000Z,1024.2
2023-02-28T09:21:45.000Z,1024.2
2023-02-28T09:23:02.000Z,1024.2
2023-02-28T09:24:18.000Z,1024.2
2023-02-28T09:25:33.000Z,1024.1
2023-02-28T09:26:48.000Z,1024.1
2023-02-28T09:28:05.396Z,1024.1
2023-02-28T09:29:21.000Z,1024.1
2023-02-28T09:30:37.000Z,1024.1
2023-02-28T09:31:54.105Z,1024.1
2023-02-28T09:33:10.000Z,1024.1
2023-02-28T09:34:26.000Z,1024
2023-02-28T09:35:42.000Z,1024.1
2023-02-28T09:36:59.010Z,1024.1
2023-02-28T09:38:15.000Z,1024
2023-02-28T09:39:31.000Z,1024.1
2023-02-28T09:40:47.000Z,1024.1
2023-02-28T09:42:03.000Z,1024.1
2023-02-28T09:43:18.000Z,1024
2023-02-28T09:44:35.000Z,1024
2023-02-28T09:45:51.000Z,1024
2023-02-28T09:48:23.000Z,1024
2023-02-28T09:49:40.000Z,1024.1
2023-02-28T09:50:56.000Z,1024
2023-02-28T09:52:12.847Z,1024
2023-02-28T09:53:28.000Z,1024.1
2023-02-28T09:54:45.000Z,1024
2023-02-28T09:56:01.294Z,1024
2023-02-28T09:57:17.000Z,1024
2023-02-28T09:58:33.000Z,1024
2023-02-28T09:59:49.000Z,1024
2023-02-28T10:01:05.000Z,1024.1
2023-02-28T10:02:21.000Z,1024
2023-02-28T10:03:37.953Z,1023.9
2023-02-28T10:04:53.000Z,1023.9
2023-02-28T10:06:10.000Z,1023.9
2023-02-28T10:07:26.000Z,1024
2023-02-28T10:08:42.000Z,1024
2023-02-28T10:09:58.000Z,1023.9
2023-02-28T10:11:15.376Z,1024
2023-02-28T10:12:31.000Z,1023.9
2023-02-28T10:13:47.000Z,1023.9
2023-02-28T10:15:03.000Z,1023.9
2023-02-28T10:16:19.000Z,1023.9
2023-02-28T10:17:35.000Z,1023.8
2023-02-28T10:18:51.000Z,1023.9
2023-02-28T10:20:07.000Z,1023.9
2023-02-28T10:21:23.000Z,1023.9
2023-02-28T10:22:40.000Z,1023.9
2023-02-28T10:23:56.000Z,1023.9
2023-02-28T10:26:28.000Z,1023.7
2023-02-28T10:27:45.000Z,1023.9
2023-02-28T10:29:01.000Z,1023.9
2023-02-28T10:30:17.878Z,1023.9
2023-02-28T10:31:33.000Z,1024
2023-02-28T10:32:49.000Z,1023.9
2023-02-28T10:34:05.000Z,1023.9
2023-02-28T10:35:21.000Z,1023.9
2023-02-28T10:36:37.000Z,1023.8
2023-02-28T10:37:54.000Z,1023.9
2023-02-28T10:39:10.000Z,1023.9
2023-02-28T10:40:26.000Z,1023.9
2023-02-28T10:41:42.000Z,1024
2023-02-28T10:42:58.000Z,1023.9
2023-02-28T10:44:15.000Z,1023.8
2023-02-28T10:45:31.682Z,1023.9
2023-02-28T10:46:47.000Z,1023.9
2023-02-28T10:48:03.000Z,1024
2023-02-28T10:49:19.000Z,1023.9
2023-02-28T10:50:35.000Z,1023.9
2023-02-28T10:51:51.000Z,1023.9
2023-02-28T10:53:07.000Z,1023.9
2023-02-28T10:54:24.000Z,1024
2023-02-28T10:55:40.000Z,1023.9
2023-02-28T10:56:56.000Z,1023.8
2023-02-28T10:58:12.000Z,1023.9
2023-02-28T10:59:29.000Z,1023.9
2023-02-28T11:00:45.000Z,1023.9
2023-02-28T11:02:01.000Z,1023.9
2023-02-28T11:03:17.000Z,1023.9
2023-02-28T11:04:34.218Z,1023.8
2023-02-28T11:05:49.000Z,1023.8
2023-02-28T11:07:05.000Z,1023.8
2023-02-28T11:08:21.000Z,1023.7
2023-02-28T11:09:37.000Z,1023.7
2023-02-28T11:10:54.000Z,1023.8
2023-02-28T11:12:10.000Z,1023.7
2023-02-28T11:13:26.881Z,1023.8
2023-02-28T11:14:42.000Z,1023.8
2023-02-28T11:15:59.000Z,1023.8
2023-02-28T11:17:15.000Z,1023.7
2023-02-28T11:18:31.000Z,1023.8
2023-02-28T11:19:47.000Z,1023.8
2023-02-28T11:21:04.000Z,1023.7
2023-02-28T11:22:19.000Z,1023.8
2023-02-28T11:23:35.000Z,1023.8
2023-02-28T11:24:51.000Z,1023.4
2023-02-28T11:26:07.000Z,1023.7
2023-02-28T11:27:24.000Z,1023.7
2023-02-28T11:29:56.000Z,1023.6
2023-02-28T11:31:12.000Z,1023.6
2023-02-28T11:32:29.000Z,1023.6
2023-02-28T11:33:45.000Z,1023.6
2023-02-28T11:35:01.000Z,1023.5
2023-02-28T11:36:17.000Z,1023.5
2023-02-28T11:37:34.000Z,1023.5
2023-02-28T11:38:49.000Z,1023.5
2023-02-28T11:40:05.000Z,1023.4
2023-02-28T11:41:21.000Z,1023.4
2023-02-28T11:42:38.000Z,1023.5
2023-02-28T11:43:54.000Z,1023.4
2023-02-28T11:45:10.000Z,1023.4
2023-02-28T11:46:26.000Z,1023.2
2023-02-28T11:47:42.000Z,1023.3
2023-02-28T11:48:59.000Z,1023.2
2023-02-28T11:50:15.000Z,1023.2
2023-02-28T11:51:31.000Z,1023.2
2023-02-28T11:52:47.000Z,1023.3
2023-02-28T11:54:04.000Z,1023.4
2023-02-28T11:55:19.000Z,1023.3
2023-02-28T11:56:35.851Z,1023.3
2023-02-28T11:57:51.000Z,1023.4
2023-02-28T11:59:08.000Z,1023.4
2023-02-28T12:00:24.000Z,1023.4
2023-02-28T12:01:40.000Z,1023.3
2023-02-28T12:02:56.000Z,1023.3
2023-02-28T12:04:12.000Z,1023.2
2023-02-28T12:05:28.000Z,1023.2
2023-02-28T12:08:00.000Z,1023.2
2023-02-28T12:09:16.000Z,1023.2
2023-02-28T12:10:33.000Z,1023.2
2023-02-28T12:11:49.000Z,1023.1
2023-02-28T12:13:05.000Z,1023.1
2023-02-28T12:14:21.000Z,1023.1
2023-02-28T12:15:38.000Z,1023.2
2023-02-28T12:16:54.000Z,1023.2
2023-02-28T12:18:10.000Z,1023.2
2023-02-28T12:19:26.000Z,1023.2
2023-02-28T12:20:42.000Z,1023.2
2023-02-28T12:21:58.000Z,1023.2
2023-02-28T12:23:14.000Z,1023.2
2023-02-28T12:24:30.000Z,1023.2
2023-02-28T12:25:47.250Z,1023.2
2023-02-28T12:27:03.000Z,1023.2
2023-02-28T12:28:19.000Z,1023.2
2023-02-28T12:29:35.000Z,1023.2
2023-02-28T12:30:51.000Z,1023.2
2023-02-28T12:32:08.417Z,1023.2
2023-02-28T12:33:24.000Z,1023.1
2023-02-28T12:34:40.000Z,1023.1
2023-02-28T12:35:56.000Z,1023.1
2023-02-28T12:37:12.000Z,1023
2023-02-28T12:38:28.000Z,1023.1
2023-02-28T12:39:44.000Z,1022.9
2023-02-28T12:41:00.000Z,1023
2023-02-28T12:42:17.287Z,1022.9
2023-02-28T12:43:33.000Z,1022.8
2023-02-28T12:44:48.801Z,1022.9
2023-02-28T12:46:04.000Z,1022.9
2023-02-28T12:47:20.278Z,1022.9
2023-02-28T12:48:36.000Z,1023
2023-02-28T12:49:52.000Z,1022.9
2023-02-28T12:51:07.000Z,1022.9
2023-02-28T12:52:23.000Z,1022.9
2023-02-28T12:53:39.510Z,1022.8
2023-02-28T12:54:55.000Z,1022.6
2023-02-28T12:56:11.000Z,1022.6
2023-02-28T12:58:44.000Z,1022.7
2023-02-28T13:00:00.000Z,1022.7
2023-02-28T13:01:16.000Z,1022.8
2023-02-28T13:02:32.000Z,1022.7
2023-02-28T13:03:49.000Z,1022.7
2023-02-28T13:05:05.000Z,1022.5
2023-02-28T13:06:21.000Z,1022.5
2023-02-28T13:07:37.000Z,1022.4
2023-02-28T13:08:53.000Z,1022.5
2023-02-28T13:10:09.000Z,1022.5
2023-02-28T13:11:25.000Z,1022.5
2023-02-28T13:12:41.000Z,1022.5
2023-02-28T13:13:57.000Z,1022.5
2023-02-28T13:15:14.000Z,1022.5
2023-02-28T13:16:30.000Z,1022.5
2023-02-28T13:17:46.000Z,1022.5
2023-02-28T13:19:02.000Z,1022.5
2023-02-28T13:20:19.000Z,1022.4
2023-02-28T13:21:35.000Z,1022.5
2023-02-28T13:22:51.867Z,1022.4
2023-02-28T13:24:07.000Z,1022.4
2023-02-28T13:25:23.000Z,1022.5
2023-02-28T13:26:39.000Z,1022.5
2023-02-28T13:27:55.000Z,1022.4
2023-02-28T13:29:11.000Z,1022.4
2023-02-28T13:30:28.000Z,1022.4
2023-02-28T13:31:44.000Z,1022.4
2023-02-28T13:33:00.000Z,1022.4
2023-02-28T13:34:16.000Z,1022.4
2023-02-28T13:35:32.000Z,1022.4
2023-02-28T13:36:49.000Z,1022.4
2023-02-28T13:38:05.000Z,1022.4
2023-02-28T13:39:21.000Z,1022.4
2023-02-28T13:40:37.000Z,1022.4
2023-02-28T13:41:53.000Z,1022.4
2023-02-28T13:43:09.000Z,1022.4
2023-02-28T13:44:25.000Z,1022.3
2023-02-28T13:45:42.121Z,1022.3
2023-02-28T13:46:58.000Z,1022.4
2023-02-28T13:48:14.000Z,1022.3
2023-02-28T13:49:30.000Z,1022.4
2023-02-28T13:50:46.000Z,1022.3
2023-02-28T13:52:03.000Z,1022.3
2023-02-28T13:53:19.000Z,1022.3
2023-02-28T13:54:35.000Z,1022.3
2023-02-28T13:55:51.000Z,1022.3
2023-02-28T13:57:08.194Z,1022.2
2023-02-28T13:58:23.000Z,1022.2
2023-02-28T13:59:39.000Z,1022.1
2023-02-28T14:00:55.925Z,1022.1
2023-02-28T14:02:11.000Z,1022.1
2023-02-28T14:03:28.000Z,1022.2
2023-02-28T14:04:44.000Z,1022.1
2023-02-28T14:06:00.000Z,1022.2
2023-02-28T14:07:16.000Z,1022.1
2023-02-28T14:08:33.000Z,1022.2
2023-02-28T14:09:49.000Z,1022.2
2023-02-28T14:11:05.868Z,1022.2
2023-02-28T14:12:21.000Z,1022.2
2023-02-28T14:13:37.000Z,1022.2
2023-02-28T14:14:53.000Z,1022.3
2023-02-28T14:16:08.000Z,1022.3
2023-02-28T14:17:25.125Z,1022.3
2023-02-28T14:18:39.000Z,1022.2
2023-02-28T14:19:56.000Z,1022.3
2023-02-28T14:21:12.000Z,1022.3
2023-02-28T14:22:28.000Z,1022.3
2023-02-28T14:23:45.177Z,1022.3
2023-02-28T14:25:01.000Z,1022.3
2023-02-28T14:26:17.000Z,1022.3
2023-02-28T14:27:33.000Z,1022.2
2023-02-28T14:28:49.000Z,1022.3
2023-02-28T14:30:06.000Z,1022.3
2023-02-28T14:31:22.000Z,1022.3
2023-02-28T14:32:38.000Z,1022.3
2023-02-28T14:33:54.000Z,1022.3
2023-02-28T14:35:10.000Z,1022.3
2023-02-28T14:36:26.000Z,1022.3
2023-02-28T14:37:42.000Z,1022.3
2023-02-28T14:38:59.006Z,1022.3
2023-02-28T14:40:15.222Z,1022.3
2023-02-28T14:41:31.574Z,1022.3
2023-02-28T14:42:46.000Z,1022.3
2023-02-28T14:44:01.000Z,1022.4
2023-02-28T14:45:17.000Z,1022.3
2023-02-28T14:46:33.000Z,1022.3
2023-02-28T14:47:48.000Z,1022.3
2023-02-28T14:49:04.000Z,1022.2
2023-02-28T14:50:20.000Z,1022.3
2023-02-28T14:51:37.000Z,1022.2
2023-02-28T14:52:53.000Z,1022.3
2023-02-28T14:54:09.000Z,1022.2
2023-02-28T14:55:25.000Z,1022.3
2023-02-28T14:56:42.000Z,1022.3
2023-02-28T14:57:58.000Z,1022.2
2023-02-28T14:59:14.000Z,1022.3
2023-02-28T15:00:30.000Z,1022.3
2023-02-28T15:01:47.000Z,1022.3
2023-02-28T15:03:03.000Z,1022.3
2023-02-28T15:04:18.000Z,1022.2
2023-02-28T15:05:34.000Z,1022.3
2023-02-28T15:06:50.000Z,1022.3
2023-02-28T15:08:07.000Z,1022.3
2023-02-28T15:09:23.000Z,1022.3
2023-02-28T15:10:39.000Z,1022.3
2023-02-28T15:11:55.000Z,1022.3
2023-02-28T15:13:12.000Z,1022.3
2023-02-28T15:14:28.000Z,1022.4
2023-02-28T15:15:44.872Z,1022.4
2023-02-28T15:17:01.097Z,1022.4
2023-02-28T15:18:17.335Z,1022.4
2023-02-28T15:19:33.000Z,1022.4
2023-02-28T15:20:48.000Z,1022.3
2023-02-28T15:22:04.000Z,1022.3
2023-02-28T15:23:21.000Z,1022.3
2023-02-28T15:24:37.000Z,1022.3
2023-02-28T15:25:53.000Z,1022.3
2023-02-28T15:27:09.000Z,1022.3
2023-02-28T15:28:25.000Z,1022.4
2023-02-28T15:29:42.431Z,1022.4
2023-02-28T15:30:58.000Z,1022.4
2023-02-28T15:32:14.000Z,1022.4
2023-02-28T15:33:30.000Z,1022.4
2023-02-28T15:34:47.374Z,1022.4
2023-02-28T15:36:03.000Z,1022.4
2023-02-28T15:37:18.000Z,1022.4
2023-02-28T15:38:34.000Z,1022.4
2023-02-28T15:39:51.000Z,1022.4
2023-02-28T15:41:07.000Z,1022.4
2023-02-28T15:43:39.000Z,1022.4
2023-02-28T15:44:56.000Z,1022.4
2023-02-28T15:46:12.000Z,1022.3
2023-02-28T15:47:28.000Z,1022.4
2023-02-28T15:48:44.000Z,1022.4
2023-02-28T15:50:00.000Z,1022.5
2023-02-28T15:51:17.000Z,1022.4
2023-02-28T15:52:33.000Z,1022.4
2023-02-28T15:53:48.000Z,1022.4
2023-02-28T15:56:21.000Z,1022.4
2023-02-28T15:57:37.000Z,1022.4
2023-02-28T15:58:53.000Z,1022.5
2023-02-28T16:00:08.000Z,1022.4
2023-02-28T16:01:24.000Z,1022.4
2023-02-28T16:02:40.000Z,1022.3
2023-02-28T16:03:56.815Z,1022.4
2023-02-28T16:05:12.000Z,1022.4
2023-02-28T16:06:29.000Z,1022.5
2023-02-28T16:09:00.000Z,1022.5
2023-02-28T16:10:16.000Z,1022.5
2023-02-28T16:11:32.260Z,1022.5
2023-02-28T16:12:47.000Z,1022.5
2023-02-28T16:14:03.000Z,1022.5